sensor_id;sensor_type;location;lat;lon;timestamp;pressure;altitude;pressure_sealevel;temperature;humidity
20156;BME280;10238;49.556;10.956;2022-10-03T00:02:52;99010.47;;;9.75;100.00
20156;BME280;10238;49.556;10.956;2022-10-03T00:06:03;99008.78;;;9.74;100.00
20156;BME280;10238;49.556;10.956;2022-10-03T00:09:16;99015.09;;;9.73;100.00
20156;BME280;10238;49.556;10.956;2022-10-03T00:12:37;99014.38;;;9.71;100.00
20156;BME280;10238;49.556;10.956;2022-10-03T00:15:42;99019.94;;;9.68;100.00
20156;BME280;10238;49.556;10.956;2022-10-03T00:18:46;99025.25;;;9.68;100.00
20156;BME280;10238;49.556;10.956;2022-10-03T00:21:52;99024.44;;;9.68;100.00
20156;BME280;10238;49.556;10.956;2022-10-03T00:24:57;99030.81;;;9.65;100.00
20156;BME280;10238;49.556;10.956;2022-10-03T00:28:09;99035.44;;;9.63;100.00
20156;BME280;10238;49.556;10.956;2022-10-03T00:31:11;99040.75;;;9.63;100.00
20156;BME280;10238;49.556;10.956;2022-10-03T00:34:15;99043.66;;;9.60;100.00
20156;BME280;10238;49.556;10.956;2022-10-03T00:37:25;99048.25;;;9.58;100.00
20156;BME280;10238;49.556;10.956;2022-10-03T00:41:05;99052.84;;;9.56;100.00
20156;BME280;10238;49.556;10.956;2022-10-03T00:48:41;99056.19;;;9.49;100.00
20156;BME280;10238;49.556;10.956;2022-10-03T00:51:44;99059.91;;;9.46;100.00
20156;BME280;10238;49.556;10.956;2022-10-03T00:54:54;99059.22;;;9.44;100.00
20156;BME280;10238;49.556;10.956;2022-10-03T01:01:34;99061.41;;;9.39;100.00
20156;BME280;10238;49.556;10.956;2022-10-03T01:04:54;99067.97;;;9.35;100.00
20156;BME280;10238;49.556;10.956;2022-10-03T01:08:21;99073.41;;;9.34;100.00
20156;BME280;10238;49.556;10.956;2022-10-03T01:11:29;99070.88;;;9.32;100.00
20156;BME280;10238;49.556;10.956;2022-10-03T01:14:46;99075.56;;;9.29;100.00
20156;BME280;10238;49.556;10.956;2022-10-03T01:17:49;99078.34;;;9.27;100.00
20156;BME280;10238;49.556;10.956;2022-10-03T01:20:47;99075.00;;;9.25;100.00
20156;BME280;10238;49.556;10.956;2022-10-03T01:24:22;99084.78;;;9.25;100.00
20156;BME280;10238;49.556;10.956;2022-10-03T01:27:17;99076.94;;;9.23;100.00
20156;BME280;10238;49.556;10.956;2022-10-03T01:30:12;99077.06;;;9.22;100.00
20156;BME280;10238;49.556;10.956;2022-10-03T01:33:17;99083.34;;;9.21;100.00
20156;BME280;10238;49.556;10.956;2022-10-03T01:36:17;99077.44;;;9.17;100.00
20156;BME280;10238;49.556;10.956;2022-10-03T01:39:14;99078.56;;;9.15;100.00
20156;BME280;10238;49.556;10.956;2022-10-03T01:42:13;99085.78;;;9.13;100.00
20156;BME280;10238;49.556;10.956;2022-10-03T01:45:22;99083.38;;;9.10;100.00
20156;BME280;10238;49.556;10.956;2022-10-03T01:48:21;99080.75;;;9.10;100.00
20156;BME280;10238;49.556;10.956;2022-10-03T01:51:21;99085.47;;;9.06;100.00
20156;BME280;10238;49.556;10.956;2022-10-03T01:54:18;99084.75;;;9.04;100.00
20156;BME280;10238;49.556;10.956;2022-10-03T01:57:18;99088.38;;;9.03;100.00
20156;BME280;10238;49.556;10.956;2022-10-03T02:00:16;99090.44;;;9.00;100.00
20156;BME280;10238;49.556;10.956;2022-10-03T02:03:14;99094.06;;;8.99;100.00
20156;BME280;10238;49.556;10.956;2022-10-03T02:06:16;99093.34;;;8.97;100.00
20156;BME280;10238;49.556;10.956;2022-10-03T02:09:15;99086.47;;;8.94;100.00
20156;BME280;10238;49.556;10.956;2022-10-03T02:12:12;99089.25;;;8.93;100.00
20156;BME280;10238;49.556;10.956;2022-10-03T02:15:12;99090.13;;;8.93;100.00
20156;BME280;10238;49.556;10.956;2022-10-03T02:18:15;99090.81;;;8.95;100.00
20156;BME280;10238;49.556;10.956;2022-10-03T02:21:13;99091.78;;;8.94;100.00
20156;BME280;10238;49.556;10.956;2022-10-03T02:24:27;99088.41;;;8.92;100.00
20156;BME280;10238;49.556;10.956;2022-10-03T02:34:58;99113.50;;;8.88;100.00
20156;BME280;10238;49.556;10.956;2022-10-03T02:38:16;99109.16;;;8.87;100.00
20156;BME280;10238;49.556;10.956;2022-10-03T02:42:00;99122.44;;;8.87;100.00
20156;BME280;10238;49.556;10.956;2022-10-03T02:45:43;99123.53;;;8.85;100.00
20156;BME280;10238;49.556;10.956;2022-10-03T02:49:04;99129.66;;;8.85;100.00
20156;BME280;10238;49.556;10.956;2022-10-03T02:52:34;99127.00;;;8.85;100.00
20156;BME280;10238;49.556;10.956;2022-10-03T02:56:07;99133.28;;;8.84;100.00
20156;BME280;10238;49.556;10.956;2022-10-03T02:59:42;99133.28;;;8.84;100.00
20156;BME280;10238;49.556;10.956;2022-10-03T03:07:09;99145.94;;;8.80;100.00
20156;BME280;10238;49.556;10.956;2022-10-03T03:10:36;99146.91;;;8.79;100.00
20156;BME280;10238;49.556;10.956;2022-10-03T03:17:26;99149.44;;;8.81;100.00
20156;BME280;10238;49.556;10.956;2022-10-03T03:20:39;99159.06;;;8.82;100.00
20156;BME280;10238;49.556;10.956;2022-10-03T03:23:50;99160.03;;;8.81;100.00
20156;BME280;10238;49.556;10.956;2022-10-03T03:27:17;99165.34;;;8.81;100.00
20156;BME280;10238;49.556;10.956;2022-10-03T03:30:12;99167.13;;;8.80;100.00
20156;BME280;10238;49.556;10.956;2022-10-03T03:33:10;99167.25;;;8.79;100.00
20156;BME280;10238;49.556;10.956;2022-10-03T03:36:14;99167.38;;;8.77;100.00
20156;BME280;10238;49.556;10.956;2022-10-03T03:39:28;99170.88;;;8.78;100.00
20156;BME280;10238;49.556;10.956;2022-10-03T03:42:57;99170.16;;;8.76;100.00
20156;BME280;10238;49.556;10.956;2022-10-03T03:46:08;99177.16;;;8.77;100.00
20156;BME280;10238;49.556;10.956;2022-10-03T03:49:30;99177.16;;;8.77;100.00
20156;BME280;10238;49.556;10.956;2022-10-03T03:52:41;99172.00;;;8.75;100.00
20156;BME280;10238;49.556;10.956;2022-10-03T03:56:01;99181.97;;;8.72;100.00
20156;BME280;10238;49.556;10.956;2022-10-03T03:59:13;99180.31;;;8.71;100.00
20156;BME280;10238;49.556;10.956;2022-10-03T04:02:22;99181.38;;;8.68;100.00
20156;BME280;10238;49.556;10.956;2022-10-03T04:05:28;99182.47;;;8.66;100.00
20156;BME280;10238;49.556;10.956;2022-10-03T04:08:45;99181.88;;;8.62;100.00
20156;BME280;10238;49.556;10.956;2022-10-03T04:11:53;99192.72;;;8.59;100.00
20156;BME280;10238;49.556;10.956;2022-10-03T04:15:11;99183.44;;;8.54;100.00
20156;BME280;10238;49.556;10.956;2022-10-03T04:18:37;99193.44;;;8.50;100.00
20156;BME280;10238;49.556;10.956;2022-10-03T04:23:24;99196.47;;;8.46;100.00
20156;BME280;10238;49.556;10.956;2022-10-03T04:30:49;99191.41;;;8.43;100.00
20156;BME280;10238;49.556;10.956;2022-10-03T04:34:54;99188.75;;;8.43;100.00
20156;BME280;10238;49.556;10.956;2022-10-03T04:42:20;99182.47;;;8.44;100.00
20156;BME280;10238;49.556;10.956;2022-10-03T04:45:33;99185.00;;;8.45;100.00
20156;BME280;10238;49.556;10.956;2022-10-03T04:48:34;99182.59;;;8.42;100.00
20156;BME280;10238;49.556;10.956;2022-10-03T04:51:43;99184.44;;;8.42;100.00
20156;BME280;10238;49.556;10.956;2022-10-03T04:54:54;99187.09;;;8.42;100.00
20156;BME280;10238;49.556;10.956;2022-10-03T04:58:06;99189.72;;;8.42;100.00
20156;BME280;10238;49.556;10.956;2022-10-03T05:01:12;99188.03;;;8.41;100.00
20156;BME280;10238;49.556;10.956;2022-10-03T05:04:15;99193.56;;;8.38;100.00
20156;BME280;10238;49.556;10.956;2022-10-03T05:07:13;99192.97;;;8.34;100.00
20156;BME280;10238;49.556;10.956;2022-10-03T05:10:41;99193.81;;;8.35;100.00
20156;BME280;10238;49.556;10.956;2022-10-03T05:14:00;99186.94;;;8.32;100.00
20156;BME280;10238;49.556;10.956;2022-10-03T05:17:17;99197.66;;;8.31;100.00
20156;BME280;10238;49.556;10.956;2022-10-03T05:20:31;99199.59;;;8.29;100.00
20156;BME280;10238;49.556;10.956;2022-10-03T05:23:52;99207.66;;;8.27;100.00
20156;BME280;10238;49.556;10.956;2022-10-03T05:27:46;99205.59;;;8.31;100.00
20156;BME280;10238;49.556;10.956;2022-10-03T05:32:24;99207.44;;;8.30;100.00
20156;BME280;10238;49.556;10.956;2022-10-03T05:39:42;99220.28;;;8.35;100.00
20156;BME280;10238;49.556;10.956;2022-10-03T05:43:00;99233.28;;;8.38;100.00
20156;BME280;10238;49.556;10.956;2022-10-03T05:46:00;99231.38;;;8.40;100.00
20156;BME280;10238;49.556;10.956;2022-10-03T05:49:01;99234.66;;;8.43;100.00
20156;BME280;10238;49.556;10.956;2022-10-03T05:52:19;99239.72;;;8.46;100.00
20156;BME280;10238;49.556;10.956;2022-10-03T05:55:29;99241.97;;;8.51;100.00
20156;BME280;10238;49.556;10.956;2022-10-03T06:02:48;99253.06;;;8.56;100.00
20156;BME280;10238;49.556;10.956;2022-10-03T06:06:11;99257.03;;;8.61;100.00
20156;BME280;10238;49.556;10.956;2022-10-03T06:15:02;99267.53;;;8.74;100.00
20156;BME280;10238;49.556;10.956;2022-10-03T06:22:58;99264.63;;;8.88;100.00
20156;BME280;10238;49.556;10.956;2022-10-03T06:26:52;99274.50;;;8.97;100.00
20156;BME280;10238;49.556;10.956;2022-10-03T06:30:19;99272.19;;;9.04;100.00
20156;BME280;10238;49.556;10.956;2022-10-03T06:34:20;99269.78;;;9.12;100.00
20156;BME280;10238;49.556;10.956;2022-10-03T06:45:13;99280.09;;;9.37;100.00
20156;BME280;10238;49.556;10.956;2022-10-03T06:52:10;99285.47;;;9.46;100.00
20156;BME280;10238;49.556;10.956;2022-10-03T06:59:16;99287.16;;;9.58;100.00
20156;BME280;10238;49.556;10.956;2022-10-03T07:14:36;99276.38;;;9.91;100.00
20156;BME280;10238;49.556;10.956;2022-10-03T07:21:51;99284.66;;;10.09;100.00
20156;BME280;10238;49.556;10.956;2022-10-03T07:32:10;99284.47;;;10.21;100.00
20156;BME280;10238;49.556;10.956;2022-10-03T07:35:39;99292.06;;;10.26;100.00
20156;BME280;10238;49.556;10.956;2022-10-03T07:45:41;99306.13;;;10.37;100.00
20156;BME280;10238;49.556;10.956;2022-10-03T07:49:00;99310.19;;;10.41;100.00
20156;BME280;10238;49.556;10.956;2022-10-03T07:52:08;99311.78;;;10.44;100.00
20156;BME280;10238;49.556;10.956;2022-10-03T07:55:38;99317.78;;;10.46;100.00
20156;BME280;10238;49.556;10.956;2022-10-03T08:02:16;99317.84;;;10.55;100.00
20156;BME280;10238;49.556;10.956;2022-10-03T08:05:48;99322.78;;;10.60;100.00
20156;BME280;10238;49.556;10.956;2022-10-03T08:12:39;99323.28;;;10.74;100.00
20156;BME280;10238;49.556;10.956;2022-10-03T08:15:49;99332.28;;;10.83;100.00
20156;BME280;10238;49.556;10.956;2022-10-03T08:19:11;99327.50;;;10.86;100.00
20156;BME280;10238;49.556;10.956;2022-10-03T08:22:14;99331.34;;;10.93;100.00
20156;BME280;10238;49.556;10.956;2022-10-03T08:25:19;99329.56;;;11.04;100.00
20156;BME280;10238;49.556;10.956;2022-10-03T08:28:40;99330.72;;;11.11;100.00
20156;BME280;10238;49.556;10.956;2022-10-03T08:38:21;99332.50;;;11.50;100.00
20156;BME280;10238;49.556;10.956;2022-10-03T08:45:09;99339.44;;;11.71;100.00
20156;BME280;10238;49.556;10.956;2022-10-03T08:51:51;99341.19;;;11.91;100.00
20156;BME280;10238;49.556;10.956;2022-10-03T08:55:29;99333.75;;;12.14;100.00
20156;BME280;10238;49.556;10.956;2022-10-03T09:01:56;99328.53;;;12.31;100.00
20156;BME280;10238;49.556;10.956;2022-10-03T09:08:49;99329.94;;;12.54;100.00
20156;BME280;10238;49.556;10.956;2022-10-03T09:12:11;99315.28;;;12.68;100.00
20156;BME280;10238;49.556;10.956;2022-10-03T09:15:34;99318.31;;;12.82;100.00
20156;BME280;10238;49.556;10.956;2022-10-03T09:18:44;99313.66;;;12.94;100.00
20156;BME280;10238;49.556;10.956;2022-10-03T09:25:12;99315.44;;;13.13;100.00
20156;BME280;10238;49.556;10.956;2022-10-03T09:28:46;99309.47;;;13.28;100.00
20156;BME280;10238;49.556;10.956;2022-10-03T09:32:04;99307.97;;;13.43;100.00
20156;BME280;10238;49.556;10.956;2022-10-03T09:35:36;99307.47;;;13.57;100.00
20156;BME280;10238;49.556;10.956;2022-10-03T09:38:55;99298.56;;;13.66;100.00
20156;BME280;10238;49.556;10.956;2022-10-03T09:45:41;99303.91;;;14.01;100.00
20156;BME280;10238;49.556;10.956;2022-10-03T09:49:00;99297.84;;;14.17;100.00
20156;BME280;10238;49.556;10.956;2022-10-03T09:52:14;99289.50;;;14.29;100.00
20156;BME280;10238;49.556;10.956;2022-10-03T09:55:27;99292.91;;;14.39;100.00
20156;BME280;10238;49.556;10.956;2022-10-03T09:58:49;99287.66;;;14.55;100.00
20156;BME280;10238;49.556;10.956;2022-10-03T10:01:51;99287.63;;;14.73;100.00
20156;BME280;10238;49.556;10.956;2022-10-03T10:04:59;99285.03;;;14.89;100.00
20156;BME280;10238;49.556;10.956;2022-10-03T10:08:16;99277.56;;;15.00;100.00
20156;BME280;10238;49.556;10.956;2022-10-03T10:11:19;99281.63;;;15.12;100.00
20156;BME280;10238;49.556;10.956;2022-10-03T10:14:39;99277.63;;;15.16;100.00
20156;BME280;10238;49.556;10.956;2022-10-03T10:21:39;99268.69;;;15.34;100.00
20156;BME280;10238;49.556;10.956;2022-10-03T10:25:07;99270.09;;;15.54;100.00
20156;BME280;10238;49.556;10.956;2022-10-03T10:28:28;99268.28;;;15.62;100.00
20156;BME280;10238;49.556;10.956;2022-10-03T10:31:58;99261.75;;;15.81;100.00
20156;BME280;10238;49.556;10.956;2022-10-03T10:38:34;99272.19;;;16.16;100.00
20156;BME280;10238;49.556;10.956;2022-10-03T10:45:35;99263.44;;;16.78;100.00
20156;BME280;10238;49.556;10.956;2022-10-03T10:49:08;99259.31;;;17.06;100.00
20156;BME280;10238;49.556;10.956;2022-10-03T10:52:25;99254.16;;;17.35;100.00
20156;BME280;10238;49.556;10.956;2022-10-03T10:55:51;99246.31;;;17.64;100.00
20156;BME280;10238;49.556;10.956;2022-10-03T10:59:14;99239.38;;;17.92;100.00
20156;BME280;10238;49.556;10.956;2022-10-03T11:02:56;99245.72;;;18.22;100.00
20156;BME280;10238;49.556;10.956;2022-10-03T11:13:36;99232.81;;;18.83;100.00
20156;BME280;10238;49.556;10.956;2022-10-03T11:17:20;99234.59;;;19.05;100.00
20156;BME280;10238;49.556;10.956;2022-10-03T11:24:13;99232.19;;;19.10;100.00
20156;BME280;10238;49.556;10.956;2022-10-03T11:27:36;99232.00;;;18.97;100.00
20156;BME280;10238;49.556;10.956;2022-10-03T11:30:58;99225.50;;;19.06;100.00
20156;BME280;10238;49.556;10.956;2022-10-03T11:37:34;99217.41;;;19.06;100.00
20156;BME280;10238;49.556;10.956;2022-10-03T11:40:36;99224.28;;;18.94;100.00
20156;BME280;10238;49.556;10.956;2022-10-03T11:43:59;99222.69;;;18.85;100.00
20156;BME280;10238;49.556;10.956;2022-10-03T11:47:12;99224.72;;;18.83;100.00
20156;BME280;10238;49.556;10.956;2022-10-03T11:50:26;99222.16;;;18.75;100.00
20156;BME280;10238;49.556;10.956;2022-10-03T11:53:43;99228.75;;;18.73;100.00
20156;BME280;10238;49.556;10.956;2022-10-03T11:56:35;99218.44;;;18.76;100.00
20156;BME280;10238;49.556;10.956;2022-10-03T12:03:02;99214.69;;;18.77;96.85
20156;BME280;10238;49.556;10.956;2022-10-03T12:05:58;99213.50;;;18.80;92.25
20156;BME280;10238;49.556;10.956;2022-10-03T12:09:16;99211.25;;;18.98;94.04
20156;BME280;10238;49.556;10.956;2022-10-03T12:12:10;99212.66;;;19.08;95.46
20156;BME280;10238;49.556;10.956;2022-10-03T12:15:13;99209.50;;;19.19;92.31
20156;BME280;10238;49.556;10.956;2022-10-03T12:18:10;99206.41;;;19.22;92.73
20156;BME280;10238;49.556;10.956;2022-10-03T12:21:21;99213.66;;;19.22;94.26
20156;BME280;10238;49.556;10.956;2022-10-03T12:24:25;99209.50;;;19.19;89.79
20156;BME280;10238;49.556;10.956;2022-10-03T12:27:18;99207.59;;;19.20;98.99
20156;BME280;10238;49.556;10.956;2022-10-03T12:30:14;99212.75;;;19.15;92.09
20156;BME280;10238;49.556;10.956;2022-10-03T12:33:20;99211.47;;;19.11;93.38
20156;BME280;10238;49.556;10.956;2022-10-03T12:36:15;99211.34;;;19.04;90.79
20156;BME280;10238;49.556;10.956;2022-10-03T12:39:17;99216.09;;;18.88;90.77
20156;BME280;10238;49.556;10.956;2022-10-03T12:42:23;99208.31;;;18.78;91.13
20156;BME280;10238;49.556;10.956;2022-10-03T12:45:22;99210.91;;;18.72;90.61
20156;BME280;10238;49.556;10.956;2022-10-03T12:48:33;99204.22;;;18.68;91.01
20156;BME280;10238;49.556;10.956;2022-10-03T12:51:30;99204.03;;;18.69;95.75
20156;BME280;10238;49.556;10.956;2022-10-03T12:54:38;99201.22;;;18.63;90.92
20156;BME280;10238;49.556;10.956;2022-10-03T12:57:46;99196.78;;;18.55;92.03
20156;BME280;10238;49.556;10.956;2022-10-03T13:00:40;99203.91;;;18.48;89.84
20156;BME280;10238;49.556;10.956;2022-10-03T13:03:40;99188.13;;;18.45;92.64
20156;BME280;10238;49.556;10.956;2022-10-03T13:06:42;99192.88;;;18.43;93.11
20156;BME280;10238;49.556;10.956;2022-10-03T13:10:08;99188.47;;;18.42;94.32
20156;BME280;10238;49.556;10.956;2022-10-03T13:13:10;99181.44;;;18.41;94.30
20156;BME280;10238;49.556;10.956;2022-10-03T13:16:18;99170.66;;;18.41;95.67
20156;BME280;10238;49.556;10.956;2022-10-03T13:19:13;99173.34;;;18.41;93.57
20156;BME280;10238;49.556;10.956;2022-10-03T13:22:14;99171.03;;;18.38;91.94
20156;BME280;10238;49.556;10.956;2022-10-03T13:25:13;99176.06;;;18.41;94.25
20156;BME280;10238;49.556;10.956;2022-10-03T13:28:10;99164.84;;;18.38;92.47
20156;BME280;10238;49.556;10.956;2022-10-03T13:31:04;99168.53;;;18.37;91.94
20156;BME280;10238;49.556;10.956;2022-10-03T13:33:59;99164.84;;;18.38;92.50
20156;BME280;10238;49.556;10.956;2022-10-03T13:36:54;99168.66;;;18.35;93.58
20156;BME280;10238;49.556;10.956;2022-10-03T13:39:46;99174.78;;;18.29;92.99
20156;BME280;10238;49.556;10.956;2022-10-03T13:42:38;99175.06;;;18.20;92.56
20156;BME280;10238;49.556;10.956;2022-10-03T13:45:30;99168.84;;;18.19;91.14
20156;BME280;10238;49.556;10.956;2022-10-03T13:48:22;99176.81;;;18.13;90.41
20156;BME280;10238;49.556;10.956;2022-10-03T13:51:14;99168.63;;;18.06;95.16
20156;BME280;10238;49.556;10.956;2022-10-03T13:54:15;99172.22;;;17.99;91.29
20156;BME280;10238;49.556;10.956;2022-10-03T13:57:14;99175.19;;;17.89;90.80
20156;BME280;10238;49.556;10.956;2022-10-03T14:00:07;99173.25;;;17.75;91.73
20156;BME280;10238;49.556;10.956;2022-10-03T14:03:10;99174.72;;;17.63;92.48
20156;BME280;10238;49.556;10.956;2022-10-03T14:06:08;99177.81;;;17.52;92.58
20156;BME280;10238;49.556;10.956;2022-10-03T14:12:21;99180.88;;;17.41;95.81
20156;BME280;10238;49.556;10.956;2022-10-03T14:15:44;99170.53;;;17.30;97.22
20156;BME280;10238;49.556;10.956;2022-10-03T14:18:44;99165.84;;;17.24;98.74
20156;BME280;10238;49.556;10.956;2022-10-03T14:21:51;99167.75;;;17.15;99.70
20156;BME280;10238;49.556;10.956;2022-10-03T14:24:59;99164.28;;;17.07;100.00
20156;BME280;10238;49.556;10.956;2022-10-03T14:27:54;99166.16;;;16.98;100.00
20156;BME280;10238;49.556;10.956;2022-10-03T14:30:57;99167.38;;;16.88;100.00
20156;BME280;10238;49.556;10.956;2022-10-03T14:33:59;99162.72;;;16.82;100.00
20156;BME280;10238;49.556;10.956;2022-10-03T14:36:55;99163.03;;;16.87;100.00
20156;BME280;10238;49.556;10.956;2022-10-03T14:40:02;99171.38;;;16.92;100.00
20156;BME280;10238;49.556;10.956;2022-10-03T14:43:14;99160.38;;;16.79;99.48
20156;BME280;10238;49.556;10.956;2022-10-03T14:46:09;99162.44;;;16.69;100.00
20156;BME280;10238;49.556;10.956;2022-10-03T14:49:01;99159.78;;;16.61;100.00
20156;BME280;10238;49.556;10.956;2022-10-03T14:51:57;99166.50;;;16.57;100.00
20156;BME280;10238;49.556;10.956;2022-10-03T14:54:51;99163.69;;;16.50;100.00
20156;BME280;10238;49.556;10.956;2022-10-03T14:57:47;99168.53;;;16.47;100.00
20156;BME280;10238;49.556;10.956;2022-10-03T15:01:06;99168.19;;;16.42;100.00
20156;BME280;10238;49.556;10.956;2022-10-03T15:04:03;99160.66;;;16.37;100.00
20156;BME280;10238;49.556;10.956;2022-10-03T15:06:54;99168.53;;;16.31;100.00
20156;BME280;10238;49.556;10.956;2022-10-03T15:09:47;99158.50;;;16.25;100.00
20156;BME280;10238;49.556;10.956;2022-10-03T15:12:40;99155.84;;;16.17;100.00
20156;BME280;10238;49.556;10.956;2022-10-03T15:15:34;99161.03;;;16.10;100.00
20156;BME280;10238;49.556;10.956;2022-10-03T15:18:26;99154.50;;;16.05;100.00
20156;BME280;10238;49.556;10.956;2022-10-03T15:21:15;99159.69;;;15.98;100.00
20156;BME280;10238;49.556;10.956;2022-10-03T15:24:06;99163.41;;;15.89;100.00
20156;BME280;10238;49.556;10.956;2022-10-03T15:27:03;99169.63;;;15.82;100.00
20156;BME280;10238;49.556;10.956;2022-10-03T15:29:56;99158.06;;;15.73;100.00
20156;BME280;10238;49.556;10.956;2022-10-03T15:32:45;99161.41;;;15.67;100.00
20156;BME280;10238;49.556;10.956;2022-10-03T15:35:40;99158.53;;;15.61;100.00
20156;BME280;10238;49.556;10.956;2022-10-03T15:38:37;99166.44;;;15.54;100.00
20156;BME280;10238;49.556;10.956;2022-10-03T15:41:31;99160.88;;;15.48;100.00
20156;BME280;10238;49.556;10.956;2022-10-03T15:44:27;99166.03;;;15.41;100.00
20156;BME280;10238;49.556;10.956;2022-10-03T15:47:22;99167.84;;;15.33;100.00
20156;BME280;10238;49.556;10.956;2022-10-03T15:50:18;99169.50;;;15.26;100.00
20156;BME280;10238;49.556;10.956;2022-10-03T15:53:17;99167.81;;;15.16;100.00
20156;BME280;10238;49.556;10.956;2022-10-03T15:56:28;99168.63;;;15.09;100.00
20156;BME280;10238;49.556;10.956;2022-10-03T15:59:22;99165.25;;;14.99;100.00
20156;BME280;10238;49.556;10.956;2022-10-03T16:02:18;99168.09;;;14.89;100.00
20156;BME280;10238;49.556;10.956;2022-10-03T16:05:16;99168.03;;;14.81;100.00
20156;BME280;10238;49.556;10.956;2022-10-03T16:08:16;99159.13;;;14.73;100.00
20156;BME280;10238;49.556;10.956;2022-10-03T16:11:14;99165.44;;;14.64;100.00
20156;BME280;10238;49.556;10.956;2022-10-03T16:14:16;99166.56;;;14.53;100.00
20156;BME280;10238;49.556;10.956;2022-10-03T16:17:15;99164.72;;;14.46;100.00
20156;BME280;10238;49.556;10.956;2022-10-03T16:20:15;99171.00;;;14.37;100.00
20156;BME280;10238;49.556;10.956;2022-10-03T16:23:16;99168.28;;;14.29;100.00
20156;BME280;10238;49.556;10.956;2022-10-03T16:26:12;99176.22;;;14.21;100.00
20156;BME280;10238;49.556;10.956;2022-10-03T16:29:11;99169.84;;;14.14;100.00
20156;BME280;10238;49.556;10.956;2022-10-03T16:32:05;99175.13;;;14.06;100.00
20156;BME280;10238;49.556;10.956;2022-10-03T16:34:59;99173.91;;;14.00;100.00
20156;BME280;10238;49.556;10.956;2022-10-03T16:37:53;99176.34;;;13.94;100.00
20156;BME280;10238;49.556;10.956;2022-10-03T16:40:54;99181.50;;;13.87;100.00
20156;BME280;10238;49.556;10.956;2022-10-03T16:43:55;99176.78;;;13.81;100.00
20156;BME280;10238;49.556;10.956;2022-10-03T16:46:46;99177.53;;;13.74;100.00
20156;BME280;10238;49.556;10.956;2022-10-03T16:49:42;99177.31;;;13.67;100.00
20156;BME280;10238;49.556;10.956;2022-10-03T16:52:51;99185.13;;;13.61;100.00
20156;BME280;10238;49.556;10.956;2022-10-03T16:55:48;99178.56;;;13.55;100.00
20156;BME280;10238;49.556;10.956;2022-10-03T16:58:41;99179.16;;;13.49;100.00
20156;BME280;10238;49.556;10.956;2022-10-03T17:01:35;99183.31;;;13.44;100.00
20156;BME280;10238;49.556;10.956;2022-10-03T17:04:30;99182.06;;;13.38;100.00
20156;BME280;10238;49.556;10.956;2022-10-03T17:07:22;99180.97;;;13.31;100.00
20156;BME280;10238;49.556;10.956;2022-10-03T17:10:36;99190.59;;;13.24;100.00
20156;BME280;10238;49.556;10.956;2022-10-03T17:13:38;99186.84;;;13.17;100.00
20156;BME280;10238;49.556;10.956;2022-10-03T17:16:36;99188.44;;;13.10;100.00
20156;BME280;10238;49.556;10.956;2022-10-03T17:19:39;99185.22;;;13.07;100.00
20156;BME280;10238;49.556;10.956;2022-10-03T17:22:36;99190.16;;;13.01;100.00
20156;BME280;10238;49.556;10.956;2022-10-03T17:25:43;99193.53;;;12.94;100.00
20156;BME280;10238;49.556;10.956;2022-10-03T17:28:42;99187.13;;;12.87;100.00
20156;BME280;10238;49.556;10.956;2022-10-03T17:31:44;99186.75;;;12.82;100.00
20156;BME280;10238;49.556;10.956;2022-10-03T17:34:42;99188.31;;;12.75;100.00
20156;BME280;10238;49.556;10.956;2022-10-03T17:38:06;99200.56;;;12.68;100.00
20156;BME280;10238;49.556;10.956;2022-10-03T17:41:22;99200.19;;;12.63;100.00
20156;BME280;10238;49.556;10.956;2022-10-03T17:44:34;99199.09;;;12.56;100.00
20156;BME280;10238;49.556;10.956;2022-10-03T17:47:48;99205.00;;;12.50;100.00
20156;BME280;10238;49.556;10.956;2022-10-03T17:50:55;99202.94;;;12.44;100.00
20156;BME280;10238;49.556;10.956;2022-10-03T17:53:50;99200.84;;;12.38;100.00
20156;BME280;10238;49.556;10.956;2022-10-03T17:56:48;99198.59;;;12.33;100.00
20156;BME280;10238;49.556;10.956;2022-10-03T17:59:49;99195.53;;;12.28;100.00
20156;BME280;10238;49.556;10.956;2022-10-03T18:02:48;99203.94;;;12.24;100.00
20156;BME280;10238;49.556;10.956;2022-10-03T18:05:45;99208.88;;;12.19;100.00
20156;BME280;10238;49.556;10.956;2022-10-03T18:08:37;99206.78;;;12.13;100.00
20156;BME280;10238;49.556;10.956;2022-10-03T18:11:34;99204.56;;;12.08;100.00
20156;BME280;10238;49.556;10.956;2022-10-03T18:14:39;99200.50;;;12.04;100.00
20156;BME280;10238;49.556;10.956;2022-10-03T18:17:43;99204.44;;;12.00;100.00
20156;BME280;10238;49.556;10.956;2022-10-03T18:20:46;99206.81;;;11.94;100.00
20156;BME280;10238;49.556;10.956;2022-10-03T18:23:50;99198.41;;;11.89;100.00
20156;BME280;10238;49.556;10.956;2022-10-03T18:26:48;99205.16;;;11.83;100.00
20156;BME280;10238;49.556;10.956;2022-10-03T18:29:49;99197.84;;;11.76;100.00
20156;BME280;10238;49.556;10.956;2022-10-03T18:32:42;99207.13;;;11.72;100.00
20156;BME280;10238;49.556;10.956;2022-10-03T18:35:34;99194.22;;;11.67;100.00
20156;BME280;10238;49.556;10.956;2022-10-03T18:38:26;99188.59;;;11.61;100.00
20156;BME280;10238;49.556;10.956;2022-10-03T18:41:16;99194.34;;;11.56;100.00
20156;BME280;10238;49.556;10.956;2022-10-03T18:44:05;99198.41;;;11.51;100.00
20156;BME280;10238;49.556;10.956;2022-10-03T18:47:15;99195.59;;;11.43;100.00
20156;BME280;10238;49.556;10.956;2022-10-03T18:50:17;99205.13;;;11.36;100.00
20156;BME280;10238;49.556;10.956;2022-10-03T18:53:24;99204.84;;;11.29;100.00
20156;BME280;10238;49.556;10.956;2022-10-03T18:56:22;99201.19;;;11.21;100.00
20156;BME280;10238;49.556;10.956;2022-10-03T18:59:23;99200.06;;;11.14;100.00
20156;BME280;10238;49.556;10.956;2022-10-03T19:02:33;99201.59;;;11.07;100.00